sensor_id;sensor_type;location;lat;lon;timestamp;pressure;altitude;pressure_sealevel;temperature;humidity
37486;BME280;23341;50.296;18.960;2022-11-11T00:05:51;113062.75;;;-144.43;100.00
37486;BME280;23341;50.296;18.960;2022-11-11T00:11:48;113062.75;;;-144.43;100.00
37486;BME280;23341;50.296;18.960;2022-11-11T00:17:42;113062.75;;;-144.43;100.00
37486;BME280;23341;50.296;18.960;2022-11-11T00:23:54;113062.75;;;-144.43;100.00
37486;BME280;23341;50.296;18.960;2022-11-11T00:30:09;113062.75;;;-144.43;100.00
37486;BME280;23341;50.296;18.960;2022-11-11T00:36:05;113062.75;;;-144.43;100.00
37486;BME280;23341;50.296;18.960;2022-11-11T00:42:00;113062.75;;;-144.43;100.00
37486;BME280;23341;50.296;18.960;2022-11-11T00:47:58;113062.75;;;-144.43;100.00
37486;BME280;23341;50.296;18.960;2022-11-11T00:54:12;113062.75;;;-144.43;100.00
37486;BME280;23341;50.296;18.960;2022-11-11T01:00:07;113062.75;;;-144.43;100.00
37486;BME280;23341;50.296;18.960;2022-11-11T01:06:00;113062.75;;;-144.43;100.00
37486;BME280;23341;50.296;18.960;2022-11-11T01:11:55;113062.75;;;-144.43;100.00
37486;BME280;23341;50.296;18.960;2022-11-11T01:17:50;113062.75;;;-144.43;100.00
37486;BME280;23341;50.296;18.960;2022-11-11T01:23:49;113062.75;;;-144.43;100.00
37486;BME280;23341;50.296;18.960;2022-11-11T01:29:45;113062.75;;;-144.43;100.00
37486;BME280;23341;50.296;18.960;2022-11-11T01:35:40;113062.75;;;-144.43;100.00
37486;BME280;23341;50.296;18.960;2022-11-11T01:41:37;113062.75;;;-144.43;100.00
37486;BME280;23341;50.296;18.960;2022-11-11T01:47:31;113062.75;;;-144.43;100.00
37486;BME280;23341;50.296;18.960;2022-11-11T01:54:08;113062.75;;;-144.43;100.00
37486;BME280;23341;50.296;18.960;2022-11-11T02:00:10;113062.75;;;-144.43;100.00
37486;BME280;23341;50.296;18.960;2022-11-11T02:06:07;113062.75;;;-144.43;100.00
37486;BME280;23341;50.296;18.960;2022-11-11T02:11:57;113062.75;;;-144.43;100.00
37486;BME280;23341;50.296;18.960;2022-11-11T02:18:12;113062.75;;;-144.43;100.00
37486;BME280;23341;50.296;18.960;2022-11-11T02:24:11;113062.75;;;-144.43;100.00
37486;BME280;23341;50.296;18.960;2022-11-11T02:30:09;113062.75;;;-144.43;100.00
37486;BME280;23341;50.296;18.960;2022-11-11T02:36:05;113062.75;;;-144.43;100.00
37486;BME280;23341;50.296;18.960;2022-11-11T02:42:04;113062.75;;;-144.43;100.00
37486;BME280;23341;50.296;18.960;2022-11-11T02:47:58;113062.75;;;-144.43;100.00
37486;BME280;23341;50.296;18.960;2022-11-11T02:53:54;113062.75;;;-144.43;100.00
37486;BME280;23341;50.296;18.960;2022-11-11T02:59:51;113062.75;;;-144.43;100.00
37486;BME280;23341;50.296;18.960;2022-11-11T03:06:00;113062.75;;;-144.43;100.00
37486;BME280;23341;50.296;18.960;2022-11-11T03:11:55;113062.75;;;-144.43;100.00
37486;BME280;23341;50.296;18.960;2022-11-11T03:17:52;113062.75;;;-144.43;100.00
37486;BME280;23341;50.296;18.960;2022-11-11T03:23:47;113062.75;;;-144.43;100.00
37486;BME280;23341;50.296;18.960;2022-11-11T03:29:42;113062.75;;;-144.43;100.00
37486;BME280;23341;50.296;18.960;2022-11-11T03:35:40;113062.75;;;-144.43;100.00
37486;BME280;23341;50.296;18.960;2022-11-11T03:41:34;113062.75;;;-144.43;100.00
37486;BME280;23341;50.296;18.960;2022-11-11T03:47:30;113062.75;;;-144.43;100.00
37486;BME280;23341;50.296;18.960;2022-11-11T03:53:26;113062.75;;;-144.43;100.00
37486;BME280;23341;50.296;18.960;2022-11-11T03:59:21;113062.75;;;-144.43;100.00
37486;BME280;23341;50.296;18.960;2022-11-11T04:05:16;113062.75;;;-144.43;100.00
37486;BME280;23341;50.296;18.960;2022-11-11T04:11:31;113062.75;;;-144.43;100.00
37486;BME280;23341;50.296;18.960;2022-11-11T04:17:28;113062.75;;;-144.43;100.00
37486;BME280;23341;50.296;18.960;2022-11-11T04:23:23;113062.75;;;-144.43;100.00
37486;BME280;23341;50.296;18.960;2022-11-11T04:29:28;113062.75;;;-144.43;100.00
37486;BME280;23341;50.296;18.960;2022-11-11T04:35:23;113062.75;;;-144.43;100.00
37486;BME280;23341;50.296;18.960;2022-11-11T04:41:18;113062.75;;;-144.43;100.00
37486;BME280;23341;50.296;18.960;2022-11-11T04:47:26;113062.75;;;-144.43;100.00
37486;BME280;23341;50.296;18.960;2022-11-11T04:53:21;113062.75;;;-144.43;100.00
37486;BME280;23341;50.296;18.960;2022-11-11T04:59:16;113062.75;;;-144.43;100.00
37486;BME280;23341;50.296;18.960;2022-11-11T05:05:12;113062.75;;;-144.43;100.00
37486;BME280;23341;50.296;18.960;2022-11-11T05:11:00;113062.75;;;-144.43;100.00
37486;BME280;23341;50.296;18.960;2022-11-11T05:16:56;113062.75;;;-144.43;100.00
37486;BME280;23341;50.296;18.960;2022-11-11T05:23:09;113062.75;;;-144.43;100.00
37486;BME280;23341;50.296;18.960;2022-11-11T05:29:05;113062.75;;;-144.43;100.00
37486;BME280;23341;50.296;18.960;2022-11-11T05:35:01;113062.75;;;-144.43;100.00
37486;BME280;23341;50.296;18.960;2022-11-11T05:40:57;113062.75;;;-144.43;100.00
37486;BME280;23341;50.296;18.960;2022-11-11T05:46:52;113062.75;;;-144.43;100.00
37486;BME280;23341;50.296;18.960;2022-11-11T05:52:47;113062.75;;;-144.43;100.00
37486;BME280;23341;50.296;18.960;2022-11-11T05:58:38;113062.75;;;-144.43;100.00
37486;BME280;23341;50.296;18.960;2022-11-11T06:04:33;113062.75;;;-144.43;100.00
37486;BME280;23341;50.296;18.960;2022-11-11T06:10:28;113062.75;;;-144.43;100.00
37486;BME280;23341;50.296;18.960;2022-11-11T06:16:25;113062.75;;;-144.43;100.00
37486;BME280;23341;50.296;18.960;2022-11-11T06:22:14;113062.75;;;-144.43;100.00
37486;BME280;23341;50.296;18.960;2022-11-11T06:28:29;113062.75;;;-144.43;100.00
37486;BME280;23341;50.296;18.960;2022-11-11T06:34:25;113062.75;;;-144.43;100.00
37486;BME280;23341;50.296;18.960;2022-11-11T06:40:20;113062.75;;;-144.43;100.00
37486;BME280;23341;50.296;18.960;2022-11-11T06:46:15;113062.75;;;-144.43;100.00
37486;BME280;23341;50.296;18.960;2022-11-11T06:52:12;113062.75;;;-144.43;100.00
37486;BME280;23341;50.296;18.960;2022-11-11T06:58:08;113062.75;;;-144.43;100.00
37486;BME280;23341;50.296;18.960;2022-11-11T07:04:03;113062.75;;;-144.43;100.00
37486;BME280;23341;50.296;18.960;2022-11-11T07:09:59;113062.75;;;-144.43;100.00
37486;BME280;23341;50.296;18.960;2022-11-11T07:15:56;113062.75;;;-144.43;96.00
37486;BME280;23341;50.296;18.960;2022-11-11T07:21:51;113062.75;;;-144.43;91.75
37486;BME280;23341;50.296;18.960;2022-11-11T07:27:47;113062.75;;;-144.43;92.11
37486;BME280;23341;50.296;18.960;2022-11-11T07:33:42;113062.75;;;-144.43;89.18
37486;BME280;23341;50.296;18.960;2022-11-11T07:39:30;113062.75;;;-144.43;85.88
37486;BME280;23341;50.296;18.960;2022-11-11T07:45:26;113062.75;;;-144.43;87.60
37486;BME280;23341;50.296;18.960;2022-11-11T07:51:21;113062.75;;;-144.43;87.25
37486;BME280;23341;50.296;18.960;2022-11-11T07:57:17;113062.75;;;-144.43;89.23
37486;BME280;23341;50.296;18.960;2022-11-11T08:03:13;113062.75;;;-144.43;88.10
37486;BME280;23341;50.296;18.960;2022-11-11T08:09:08;113062.75;;;-144.43;87.62
37486;BME280;23341;50.296;18.960;2022-11-11T08:15:04;113062.75;;;-144.43;89.26
37486;BME280;23341;50.296;18.960;2022-11-11T08:20:54;113062.75;;;-144.43;89.07
37486;BME280;23341;50.296;18.960;2022-11-11T08:26:51;113062.75;;;-144.43;87.76
37486;BME280;23341;50.296;18.960;2022-11-11T08:32:46;113062.75;;;-144.43;86.51
37486;BME280;23341;50.296;18.960;2022-11-11T08:39:03;113062.75;;;-144.43;85.70
37486;BME280;23341;50.296;18.960;2022-11-11T08:44:57;113062.75;;;-144.43;88.68
37486;BME280;23341;50.296;18.960;2022-11-11T08:50:52;113062.75;;;-144.43;87.01
37486;BME280;23341;50.296;18.960;2022-11-11T08:56:48;113062.75;;;-144.43;83.90
37486;BME280;23341;50.296;18.960;2022-11-11T09:02:43;113062.75;;;-144.43;86.49
37486;BME280;23341;50.296;18.960;2022-11-11T09:08:40;113062.75;;;-144.43;88.00
37486;BME280;23341;50.296;18.960;2022-11-11T09:14:37;113062.75;;;-144.43;89.20
37486;BME280;23341;50.296;18.960;2022-11-11T09:20:33;113062.75;;;-144.43;88.75
37486;BME280;23341;50.296;18.960;2022-11-11T09:26:31;113062.75;;;-144.43;87.70
37486;BME280;23341;50.296;18.960;2022-11-11T09:32:31;113062.75;;;-144.43;86.70
37486;BME280;23341;50.296;18.960;2022-11-11T09:38:27;113062.75;;;-144.43;85.99
37486;BME280;23341;50.296;18.960;2022-11-11T09:44:34;113062.75;;;-144.43;87.35
37486;BME280;23341;50.296;18.960;2022-11-11T09:50:38;113062.75;;;-144.43;90.19
37486;BME280;23341;50.296;18.960;2022-11-11T09:56:40;113062.75;;;-144.43;85.36
37486;BME280;23341;50.296;18.960;2022-11-11T10:02:40;113062.75;;;-144.43;84.36
37486;BME280;23341;50.296;18.960;2022-11-11T10:08:45;113062.75;;;-144.43;83.28
37486;BME280;23341;50.296;18.960;2022-11-11T10:14:48;113062.75;;;-144.43;79.38
37486;BME280;23341;50.296;18.960;2022-11-11T10:20:47;113062.75;;;-144.43;77.78
37486;BME280;23341;50.296;18.960;2022-11-11T10:26:41;113062.75;;;-144.43;75.30
37486;BME280;23341;50.296;18.960;2022-11-11T10:32:37;113062.75;;;-144.43;72.24
37486;BME280;23341;50.296;18.960;2022-11-11T10:38:32;113062.75;;;-144.43;72.58
37486;BME280;23341;50.296;18.960;2022-11-11T10:44:31;113062.75;;;-144.43;70.80
37486;BME280;23341;50.296;18.960;2022-11-11T10:50:30;113062.75;;;-144.43;75.37
37486;BME280;23341;50.296;18.960;2022-11-11T10:56:30;113062.75;;;-144.43;77.53
37486;BME280;23341;50.296;18.960;2022-11-11T11:02:33;113062.75;;;-144.43;78.21
37486;BME280;23341;50.296;18.960;2022-11-11T11:08:35;113062.75;;;-144.43;77.90
37486;BME280;23341;50.296;18.960;2022-11-11T11:14:36;113062.75;;;-144.43;77.89
37486;BME280;23341;50.296;18.960;2022-11-11T11:20:27;113062.75;;;-144.43;79.33
37486;BME280;23341;50.296;18.960;2022-11-11T11:26:22;113062.75;;;-144.43;79.00
37486;BME280;23341;50.296;18.960;2022-11-11T11:32:18;113062.75;;;-144.43;79.13
37486;BME280;23341;50.296;18.960;2022-11-11T11:38:15;113062.75;;;-144.43;78.53
37486;BME280;23341;50.296;18.960;2022-11-11T11:44:23;113062.75;;;-144.43;78.44
37486;BME280;23341;50.296;18.960;2022-11-11T11:50:35;113062.75;;;-144.43;78.63
37486;BME280;23341;50.296;18.960;2022-11-11T11:56:35;113062.75;;;-144.43;78.25
37486;BME280;23341;50.296;18.960;2022-11-11T12:02:47;113062.75;;;-144.43;80.77
37486;BME280;23341;50.296;18.960;2022-11-11T12:08:59;113062.75;;;-144.43;79.97
37486;BME280;23341;50.296;18.960;2022-11-11T12:15:29;113062.75;;;-144.43;80.62
37486;BME280;23341;50.296;18.960;2022-11-11T12:21:29;113062.75;;;-144.43;80.10
37486;BME280;23341;50.296;18.960;2022-11-11T12:27:34;113062.75;;;-144.43;78.81
37486;BME280;23341;50.296;18.960;2022-11-11T12:33:45;113062.75;;;-144.43;80.07
37486;BME280;23341;50.296;18.960;2022-11-11T12:39:56;113062.75;;;-144.43;79.03
37486;BME280;23341;50.296;18.960;2022-11-11T12:46:00;113062.75;;;-144.43;81.17
37486;BME280;23341;50.296;18.960;2022-11-11T12:52:01;113062.75;;;-144.43;81.01
37486;BME280;23341;50.296;18.960;2022-11-11T12:58:10;113062.75;;;-144.43;82.10
37486;BME280;23341;50.296;18.960;2022-11-11T13:04:19;113062.75;;;-144.43;82.91
37486;BME280;23341;50.296;18.960;2022-11-11T13:10:25;113062.75;;;-144.43;83.24
37486;BME280;23341;50.296;18.960;2022-11-11T13:16:23;113062.75;;;-144.43;83.41
37486;BME280;23341;50.296;18.960;2022-11-11T13:22:21;113062.75;;;-144.43;83.65
37486;BME280;23341;50.296;18.960;2022-11-11T13:28:20;113062.75;;;-144.43;84.34
37486;BME280;23341;50.296;18.960;2022-11-11T13:34:18;113062.75;;;-144.43;84.86
37486;BME280;23341;50.296;18.960;2022-11-11T13:40:25;113062.75;;;-144.43;84.66
37486;BME280;23341;50.296;18.960;2022-11-11T13:46:35;113062.75;;;-144.43;86.00
37486;BME280;23341;50.296;18.960;2022-11-11T13:52:33;113062.75;;;-144.43;86.13
37486;BME280;23341;50.296;18.960;2022-11-11T13:58:31;113062.75;;;-144.43;86.73
37486;BME280;23341;50.296;18.960;2022-11-11T14:04:29;113062.75;;;-144.43;87.45
37486;BME280;23341;50.296;18.960;2022-11-11T14:10:49;113062.75;;;-144.43;88.55
37486;BME280;23341;50.296;18.960;2022-11-11T14:17:00;113062.75;;;-144.43;90.08
37486;BME280;23341;50.296;18.960;2022-11-11T14:23:25;113062.75;;;-144.43;91.24
37486;BME280;23341;50.296;18.960;2022-11-11T14:29:27;113062.75;;;-144.43;91.67
37486;BME280;23341;50.296;18.960;2022-11-11T14:35:32;113062.75;;;-144.43;92.50
37486;BME280;23341;50.296;18.960;2022-11-11T14:41:45;113062.75;;;-144.43;92.83
37486;BME280;23341;50.296;18.960;2022-11-11T14:47:41;113062.75;;;-144.43;93.10
37486;BME280;23341;50.296;18.960;2022-11-11T14:53:40;113062.75;;;-144.43;94.61
37486;BME280;23341;50.296;18.960;2022-11-11T14:59:37;113062.75;;;-144.43;94.81
37486;BME280;23341;50.296;18.960;2022-11-11T15:05:45;113062.75;;;-144.43;96.46
37486;BME280;23341;50.296;18.960;2022-11-11T15:11:44;113062.75;;;-144.43;97.55
37486;BME280;23341;50.296;18.960;2022-11-11T15:17:54;113062.75;;;-144.43;97.64
37486;BME280;23341;50.296;18.960;2022-11-11T15:23:54;113062.75;;;-144.43;97.46
37486;BME280;23341;50.296;18.960;2022-11-11T15:30:05;113062.75;;;-144.43;98.13
37486;BME280;23341;50.296;18.960;2022-11-11T15:36:04;113062.75;;;-144.43;98.32
37486;BME280;23341;50.296;18.960;2022-11-11T15:42:03;113062.75;;;-144.43;99.18
37486;BME280;23341;50.296;18.960;2022-11-11T15:47:59;113062.75;;;-144.43;100.00
37486;BME280;23341;50.296;18.960;2022-11-11T15:54:09;113062.75;;;-144.43;99.49
37486;BME280;23341;50.296;18.960;2022-11-11T16:00:00;113062.75;;;-144.43;100.00
37486;BME280;23341;50.296;18.960;2022-11-11T16:05:55;113062.75;;;-144.43;100.00
37486;BME280;23341;50.296;18.960;2022-11-11T16:11:54;113062.75;;;-144.43;100.00
37486;BME280;23341;50.296;18.960;2022-11-11T16:17:51;113062.75;;;-144.43;100.00
37486;BME280;23341;50.296;18.960;2022-11-11T16:23:50;113062.75;;;-144.43;100.00
37486;BME280;23341;50.296;18.960;2022-11-11T16:29:47;113062.75;;;-144.43;100.00
37486;BME280;23341;50.296;18.960;2022-11-11T16:35:42;113062.75;;;-144.43;100.00
37486;BME280;23341;50.296;18.960;2022-11-11T16:41:38;113062.75;;;-144.43;100.00
37486;BME280;23341;50.296;18.960;2022-11-11T16:47:45;113062.75;;;-144.43;100.00
37486;BME280;23341;50.296;18.960;2022-11-11T16:53:37;113062.75;;;-144.43;100.00
37486;BME280;23341;50.296;18.960;2022-11-11T16:59:37;113062.75;;;-144.43;100.00
37486;BME280;23341;50.296;18.960;2022-11-11T17:05:51;113062.75;;;-144.43;100.00
37486;BME280;23341;50.296;18.960;2022-11-11T17:11:43;113062.75;;;-144.43;100.00
37486;BME280;23341;50.296;18.960;2022-11-11T17:17:39;113062.75;;;-144.43;100.00
37486;BME280;23341;50.296;18.960;2022-11-11T17:23:36;113062.75;;;-144.43;100.00
37486;BME280;23341;50.296;18.960;2022-11-11T17:29:31;113062.75;;;-144.43;100.00
37486;BME280;23341;50.296;18.960;2022-11-11T17:35:26;113062.75;;;-144.43;100.00
37486;BME280;23341;50.296;18.960;2022-11-11T17:41:22;113062.75;;;-144.43;100.00
37486;BME280;23341;50.296;18.960;2022-11-11T17:47:17;113062.75;;;-144.43;100.00
37486;BME280;23341;50.296;18.960;2022-11-11T17:53:12;113062.75;;;-144.43;100.00
37486;BME280;23341;50.296;18.960;2022-11-11T17:59:08;113062.75;;;-144.43;100.00
37486;BME280;23341;50.296;18.960;2022-11-11T18:04:56;113062.75;;;-144.43;100.00
37486;BME280;23341;50.296;18.960;2022-11-11T18:10:51;113062.75;;;-144.43;100.00
37486;BME280;23341;50.296;18.960;2022-11-11T18:16:47;113062.75;;;-144.43;100.00
37486;BME280;23341;50.296;18.960;2022-11-11T18:22:43;113062.75;;;-144.43;100.00
37486;BME280;23341;50.296;18.960;2022-11-11T18:28:38;113062.75;;;-144.43;100.00
37486;BME280;23341;50.296;18.960;2022-11-11T18:34:34;113062.75;;;-144.43;100.00
37486;BME280;23341;50.296;18.960;2022-11-11T18:40:29;113062.75;;;-144.43;100.00
37486;BME280;23341;50.296;18.960;2022-11-11T18:46:25;113062.75;;;-144.43;100.00
37486;BME280;23341;50.296;18.960;2022-11-11T18:52:22;113062.75;;;-144.43;100.00
37486;BME280;23341;50.296;18.960;2022-11-11T18:58:10;113062.75;;;-144.43;100.00
37486;BME280;23341;50.296;18.960;2022-11-11T19:04:08;113062.75;;;-144.43;100.00
37486;BME280;23341;50.296;18.960;2022-11-11T19:10:05;113062.75;;;-144.43;100.00
37486;BME280;23341;50.296;18.960;2022-11-11T19:15:48;113062.75;;;-144.43;100.00
37486;BME280;23341;50.296;18.960;2022-11-11T19:21:43;113062.75;;;-144.43;100.00
37486;BME280;23341;50.296;18.960;2022-11-11T19:27:39;113062.75;;;-144.43;100.00
37486;BME280;23341;50.296;18.960;2022-11-11T19:33:36;113062.75;;;-144.43;100.00
37486;BME280;23341;50.296;18.960;2022-11-11T19:39:33;113062.75;;;-144.43;100.00
37486;BME280;23341;50.296;18.960;2022-11-11T19:45:22;113062.75;;;-144.43;100.00
37486;BME280;23341;50.296;18.960;2022-11-11T19:51:19;113062.75;;;-144.43;100.00
37486;BME280;23341;50.296;18.960;2022-11-11T19:57:17;113062.75;;;-144.43;100.00
37486;BME280;23341;50.296;18.960;2022-11-11T20:03:13;113062.75;;;-144.43;100.00
37486;BME280;23341;50.296;18.960;2022-11-11T20:09:09;113062.75;;;-144.43;100.00
37486;BME280;23341;50.296;18.960;2022-11-11T20:15:05;113062.75;;;-144.43;100.00
37486;BME280;23341;50.296;18.960;2022-11-11T20:21:03;113062.75;;;-144.43;100.00
37486;BME280;23341;50.296;18.960;2022-11-11T20:26:58;113062.75;;;-144.43;100.00
37486;BME280;23341;50.296;18.960;2022-11-11T20:32:54;113062.75;;;-144.43;100.00
37486;BME280;23341;50.296;18.960;2022-11-11T20:38:43;113062.75;;;-144.43;100.00
37486;BME280;23341;50.296;18.960;2022-11-11T20:44:39;113062.75;;;-144.43;100.00
37486;BME280;23341;50.296;18.960;2022-11-11T20:50:34;113062.75;;;-144.43;100.00
37486;BME280;23341;50.296;18.960;2022-11-11T20:56:31;113062.75;;;-144.43;100.00
37486;BME280;23341;50.296;18.960;2022-11-11T21:02:26;113062.75;;;-144.43;100.00
37486;BME280;23341;50.296;18.960;2022-11-11T21:08:24;113062.75;;;-144.43;100.00
37486;BME280;23341;50.296;18.960;2022-11-11T21:14:20;113062.75;;;-144.43;100.00
37486;BME280;23341;50.296;18.960;2022-11-11T21:20:08;113062.75;;;-144.43;100.00
37486;BME280;23341;50.296;18.960;2022-11-11T21:26:05;113062.75;;;-144.43;100.00
37486;BME280;23341;50.296;18.960;2022-11-11T21:32:03;113062.75;;;-144.43;100.00
37486;BME280;23341;50.296;18.960;2022-11-11T21:37:59;113062.75;;;-144.43;100.00
37486;BME280;23341;50.296;18.960;2022-11-11T21:43:48;113062.75;;;-144.43;100.00
37486;BME280;23341;50.296;18.960;2022-11-11T21:49:44;113062.75;;;-144.43;100.00
37486;BME280;23341;50.296;18.960;2022-11-11T21:55:39;113062.75;;;-144.43;100.00
37486;BME280;23341;50.296;18.960;2022-11-11T22:01:36;113062.75;;;-144.43;100.00
37486;BME280;23341;50.296;18.960;2022-11-11T22:07:33;113062.75;;;-144.43;100.00
37486;BME280;23341;50.296;18.960;2022-11-11T22:13:28;113062.75;;;-144.43;100.00
37486;BME280;23341;50.296;18.960;2022-11-11T22:19:25;113062.75;;;-144.43;100.00
37486;BME280;23341;50.296;18.960;2022-11-11T22:25:15;113062.75;;;-144.43;100.00
37486;BME280;23341;50.296;18.960;2022-11-11T22:31:11;113062.75;;;-144.43;100.00
37486;BME280;23341;50.296;18.960;2022-11-11T22:37:00;113062.75;;;-144.43;100.00
37486;BME280;23341;50.296;18.960;2022-11-11T22:42:56;113062.75;;;-144.43;100.00
37486;BME280;23341;50.296;18.960;2022-11-11T22:48:52;113062.75;;;-144.43;100.00
37486;BME280;23341;50.296;18.960;2022-11-11T22:54:28;113062.75;;;-144.43;100.00
37486;BME280;23341;50.296;18.960;2022-11-11T23:00:23;113062.75;;;-144.43;100.00
37486;BME280;23341;50.296;18.960;2022-11-11T23:06:19;113062.75;;;-144.43;100.00
37486;BME280;23341;50.296;18.960;2022-11-11T23:12:14;113062.75;;;-144.43;100.00
37486;BME280;23341;50.296;18.960;2022-11-11T23:18:10;113062.75;;;-144.43;100.00
37486;BME280;23341;50.296;18.960;2022-11-11T23:24:06;113062.75;;;-144.43;100.00
37486;BME280;23341;50.296;18.960;2022-11-11T23:30:01;113062.75;;;-144.43;100.00
37486;BME280;23341;50.296;18.960;2022-11-11T23:35:59;113062.75;;;-144.43;100.00
37486;BME280;23341;50.296;18.960;2022-11-11T23:41:54;113062.75;;;-144.43;100.00
37486;BME280;23341;50.296;18.960;2022-11-11T23:47:49;113062.75;;;-144.43;100.00
37486;BME280;23341;50.296;18.960;2022-11-11T23:53:38;113062.75;;;-144.43;100.00
37486;BME280;23341;50.296;18.960;2022-11-11T23:59:33;113062.75;;;-144.43;100.00
